| time (UTC) | temp F | wind direction | speed MPH | gust MPH | rain 1hr in | rain 24hr in | rain mn in | humidity % | barometer mb |
| 20260507163020 | 45 | 171 | 1.0 | 3.0 | 0.00 | 0.00 | 0.00 | 84 | 1004.6 |
| 20260507161519 | 45 | 167 | 1.0 | 4.0 | 0.00 | 0.00 | 0.00 | 83 | 1004.8 |
| 20260507160027 | 45 | 174 | 2.0 | 6.0 | 0.00 | 0.00 | 0.00 | 83 | 1005.0 |
| 20260507154515 | 45 | 119 | 2.0 | 5.0 | 0.00 | 0.00 | 0.00 | 82 | 1005.1 |
| 20260507153013 | 46 | 203 | 3.0 | 6.0 | 0.00 | 0.00 | 0.00 | 82 | 1005.2 |
| 20260507151512 | 46 | 148 | 2.0 | 5.0 | 0.00 | 0.00 | 0.00 | 82 | 1005.4 |
| 20260507150013 | 46 | 164 | 1.0 | 5.0 | 0.00 | 0.00 | 0.00 | 82 | 1005.4 |
| 20260507144510 | 46 | 208 | 1.0 | 5.0 | 0.00 | 0.00 | 0.00 | 82 | 1005.5 |
| 20260507143005 | 47 | 143 | 1.0 | 4.0 | 0.00 | 0.00 | 0.00 | 83 | 1005.6 |
| 20260507141504 | 47 | 165 | 1.0 | 4.0 | 0.00 | 0.00 | 0.00 | 83 | 1005.6 |
| 20260507140002 | 46 | 153 | 1.0 | 3.0 | 0.00 | 0.00 | 0.00 | 86 | 1005.8 |
| 20260507134501 | 46 | 154 | 0.0 | 2.0 | 0.00 | 0.00 | 0.00 | 88 | 1005.7 |
| 20260507133110 | 46 | 146 | 0.0 | 2.0 | 0.00 | 0.00 | 0.00 | 88 | 1005.7 |
| 20260507131612 | 47 | 153 | 0.0 | 4.0 | 0.00 | 0.00 | 0.00 | 89 | 1005.7 |
| 20260507130056 | 46 | 132 | 0.0 | 3.0 | 0.00 | 0.00 | 0.00 | 93 | 1005.7 |
| 20260507124556 | 45 | 125 | 0.0 | 1.0 | 0.00 | 0.00 | 0.00 | 93 | 1005.8 |
| 20260507123109 | 45 | 82 | 0.0 | 1.0 | 0.00 | 0.00 | 0.00 | 93 | 1005.7 |
| 20260507121549 | 46 | 159 | 1.0 | 3.0 | 0.00 | 0.00 | 0.00 | 94 | 1005.7 |
| 20260507120047 | 46 | 149 | 0.0 | 2.0 | 0.00 | 0.00 | 0.00 | 94 | 1005.8 |
| 20260507114552 | 46 | 162 | 0.0 | 0.0 | 0.00 | 0.00 | 0.00 | 94 | 1006.0 |
| 20260507113044 | 46 | 146 | 0.0 | 1.0 | 0.00 | 0.00 | 0.00 | 93 | 1006.1 |
| 20260507111543 | 47 | 149 | 0.0 | 3.0 | 0.00 | 0.00 | 0.00 | 92 | 1006.0 |
| 20260507110047 | 48 | 123 | 0.0 | 4.0 | 0.00 | 0.00 | 0.00 | 93 | 1005.9 |
| 20260507104542 | 48 | 206 | 0.0 | 4.0 | 0.00 | 0.00 | 0.00 | 92 | 1006.2 |
| 20260507103041 | 48 | 148 | 0.0 | 1.0 | 0.00 | 0.00 | 0.00 | 90 | 1006.1 |
| 20260507101541 | 50 | 141 | 0.0 | 1.0 | 0.00 | 0.00 | 0.00 | 87 | 1006.0 |
| 20260507100051 | 53 | 111 | 0.0 | 2.0 | 0.00 | 0.00 | 0.00 | 84 | 1006.0 |
| 20260507094539 | 51 | 136 | 0.0 | 2.0 | 0.00 | 0.00 | 0.00 | 91 | 1005.9 |
| 20260507093039 | 49 | 152 | 1.0 | 3.0 | 0.00 | 0.00 | 0.00 | 94 | 1006.0 |
| 20260507091540 | 48 | 181 | 0.0 | 2.0 | 0.00 | 0.00 | 0.00 | 93 | 1006.0 |
| 20260507090044 | 47 | 155 | 0.0 | 2.0 | 0.00 | 0.00 | 0.00 | 92 | 1005.5 |
| 20260507084547 | 47 | 165 | 0.0 | 3.0 | 0.00 | 0.00 | 0.00 | 92 | 1005.4 |
| 20260507083036 | 47 | 138 | 1.0 | 4.0 | 0.00 | 0.00 | 0.00 | 91 | 1005.4 |
| 20260507081534 | 47 | 176 | 0.0 | 4.0 | 0.00 | 0.00 | 0.00 | 90 | 1005.3 |
| 20260507080031 | 48 | 150 | 0.0 | 3.0 | 0.00 | 0.00 | 0.00 | 90 | 1005.3 |
| 20260507074530 | 48 | 156 | 2.0 | 5.0 | 0.00 | 0.00 | 0.00 | 90 | 1005.3 |
| 20260507073031 | 48 | 181 | 3.0 | 6.0 | 0.00 | 0.00 | 0.00 | 89 | 1005.4 |
| 20260507071532 | 49 | 153 | 1.0 | 2.0 | 0.00 | 0.00 | 0.00 | 88 | 1005.4 |
| 20260507070028 | 49 | 162 | 1.0 | 4.0 | 0.00 | 0.00 | 0.00 | 89 | 1005.3 |
| 20260507064533 | 50 | 145 | 0.0 | 1.0 | 0.00 | 0.00 | 0.00 | 88 | 1005.2 |
| 20260507063020 | 51 | 102 | 0.0 | 3.0 | 0.00 | 0.00 | 0.00 | 87 | 1005.1 |
| 20260507061519 | 51 | 144 | 0.0 | 1.0 | 0.00 | 0.00 | 0.00 | 85 | 1005.0 |
| 20260507060017 | 53 | 129 | 0.0 | 0.0 | 0.00 | 0.00 | 0.00 | 84 | 1005.0 |
| 20260507054517 | 55 | 113 | 0.0 | 0.0 | 0.00 | 0.00 | 0.00 | 80 | 1005.1 |
| 20260507053016 | 58 | 113 | 0.0 | 0.0 | 0.00 | 0.00 | 0.00 | 76 | 1005.2 |
| 20260507051515 | 59 | 123 | 0.0 | 3.0 | 0.00 | 0.00 | 0.00 | 73 | 1005.3 |
| 20260507050032 | 61 | 246 | 0.0 | 3.0 | 0.00 | 0.00 | 0.00 | 70 | 1005.3 |
| 20260507044514 | 62 | 197 | 0.0 | 3.0 | 0.00 | 0.00 | 0.00 | 69 | 1005.4 |
| 20260507043013 | 63 | 306 | 0.0 | 2.0 | 0.00 | 0.00 | 0.00 | 66 | 1005.3 |
| 20260507041521 | 64 | 110 | 3.0 | 6.0 | 0.00 | 0.00 | 0.00 | 60 | 1005.5 |
| 20260507040010 | 65 | 17 | 0.0 | 8.0 | 0.00 | 0.00 | 0.00 | 61 | 1005.7 |
| 20260507034509 | 65 | 97 | 1.0 | 5.0 | 0.00 | 0.00 | 0.00 | 60 | 1005.9 |
| 20260507033006 | 64 | 65 | 4.0 | 9.0 | 0.00 | 0.00 | 0.00 | 63 | 1005.8 |
| 20260507031508 | 64 | 48 | 0.0 | 3.0 | 0.00 | 0.00 | 0.00 | 69 | 1005.9 |
| 20260507030010 | 64 | 338 | 0.0 | 1.0 | 0.00 | 0.00 | 0.00 | 69 | 1005.9 |
| 20260507024508 | 62 | 318 | 0.0 | 0.0 | 0.00 | 0.00 | 0.00 | 73 | 1006.2 |
| 20260507023001 | 62 | 18 | 0.0 | 2.0 | 0.00 | 0.00 | 0.00 | 73 | 1006.2 |
| 20260507021501 | 62 | 37 | 0.0 | 1.0 | 0.00 | 0.00 | 0.00 | 73 | 1006.3 |
| 20260507020119 | 62 | 5 | 0.0 | 0.0 | 0.00 | 0.00 | 0.00 | 72 | 1006.1 |
| 20260507014601 | 62 | 46 | 0.0 | 2.0 | 0.00 | 0.00 | 0.00 | 72 | 1006.5 |
| 20260507013057 | 63 | 354 | 0.0 | 0.0 | 0.00 | 0.00 | 0.00 | 70 | 1006.5 |
| 20260507011556 | 63 | 11 | 0.0 | 3.0 | 0.00 | 0.00 | 0.00 | 69 | 1006.9 |
| 20260507010109 | 63 | 320 | 0.0 | 7.0 | 0.00 | 0.00 | 0.00 | 69 | 1007.1 |
| 20260507004552 | 63 | 29 | 0.0 | 5.0 | 0.00 | 0.00 | 0.00 | 70 | 1006.8 |
| 20260507003049 | 63 | 338 | 1.0 | 3.0 | 0.00 | 0.00 | 0.00 | 70 | 1007.7 |
| 20260507001555 | 63 | 139 | 0.0 | 3.0 | 0.00 | 0.00 | 0.00 | 67 | 1008.0 |
| 20260507000046 | 63 | 192 | 2.0 | 6.0 | 0.00 | 0.00 | 0.00 | 66 | 1008.1 |
| 20260506234544 | 63 | 206 | 0.0 | 5.0 | 0.00 | 0.00 | 0.00 | 66 | 1008.2 |
| 20260506233042 | 63 | 279 | 1.0 | 10.0 | 0.00 | 0.00 | 0.00 | 67 | 1008.5 |
| 20260506231557 | 64 | 158 | 1.0 | 8.0 | 0.00 | 0.00 | 0.00 | 66 | 1008.8 |
| 20260506230045 | 62 | 183 | 2.0 | 8.0 | 0.00 | 0.00 | 0.00 | 68 | 1009.1 |
| 20260506224538 | 61 | 215 | 1.0 | 5.0 | 0.00 | 0.00 | 0.00 | 69 | 1009.3 |
| 20260506223034 | 61 | 210 | 3.0 | 8.0 | 0.00 | 0.00 | 0.00 | 68 | 1009.3 |
| 20260506221531 | 61 | 146 | 5.0 | 10.0 | 0.00 | 0.00 | 0.00 | 67 | 1009.7 |
| 20260506220034 | 60 | 162 | 3.0 | 10.0 | 0.00 | 0.00 | 0.00 | 69 | 1009.9 |
| 20260506214523 | 59 | 234 | 4.0 | 13.0 | 0.00 | 0.00 | 0.00 | 69 | 1010.3 |
| 20260506213020 | 59 | 184 | 0.0 | 4.0 | 0.00 | 0.00 | 0.00 | 69 | 1010.4 |
| 20260506211620 | 59 | 164 | 1.0 | 12.0 | 0.00 | 0.00 | 0.00 | 69 | 1010.6 |
| 20260506210012 | 59 | 159 | 0.0 | 9.0 | 0.00 | 0.00 | 0.00 | 68 | 1010.5 |
| 20260506204508 | 59 | 174 | 2.0 | 8.0 | 0.00 | 0.00 | 0.00 | 68 | 1010.6 |
| 20260506203003 | 56 | 188 | 2.0 | 10.0 | 0.00 | 0.00 | 0.00 | 73 | 1011.0 |
| 20260506201507 | 54 | 219 | 0.0 | 4.0 | 0.00 | 0.00 | 0.00 | 78 | 1011.1 |
| 20260506200100 | 52 | 213 | 0.0 | 0.0 | 0.00 | 0.00 | 0.00 | 82 | 1011.3 |
| 20260506194600 | 50 | 248 | 0.0 | 2.0 | 0.00 | 0.00 | 0.00 | 83 | 1011.6 |
| 20260506193059 | 50 | 15 | 0.0 | 0.0 | 0.00 | 0.00 | 0.00 | 83 | 1011.6 |
| 20260506191602 | 50 | 13 | 0.0 | 0.0 | 0.00 | 0.00 | 0.00 | 82 | 1011.9 |
| 20260506190053 | 51 | 13 | 0.0 | 0.0 | 0.00 | 0.00 | 0.00 | 80 | 1012.2 |
| 20260506184604 | 51 | 329 | 0.0 | 1.0 | 0.00 | 0.00 | 0.00 | 79 | 1012.5 |
| 20260506183050 | 51 | 346 | 0.0 | 0.0 | 0.00 | 0.00 | 0.00 | 80 | 1012.4 |
| 20260506181549 | 52 | 63 | 0.0 | 1.0 | 0.00 | 0.00 | 0.00 | 79 | 1012.5 |
| 20260506180050 | 52 | 272 | 0.0 | 1.0 | 0.00 | 0.00 | 0.00 | 81 | 1012.8 |
| 20260506174547 | 51 | 335 | 0.0 | 1.0 | 0.00 | 0.00 | 0.00 | 82 | 1012.8 |
| 20260506173048 | 51 | 163 | 0.0 | 0.0 | 0.00 | 0.00 | 0.00 | 81 | 1013.0 |
| 20260506171555 | 51 | 129 | 0.0 | 3.0 | 0.00 | 0.00 | 0.00 | 80 | 1013.2 |
| 20260506170044 | 51 | 165 | 1.0 | 4.0 | 0.00 | 0.00 | 0.00 | 80 | 1013.7 |
| 20260506164543 | 51 | 155 | 0.0 | 3.0 | 0.00 | 0.00 | 0.00 | 80 | 1014.2 |